Disclaimer

Please do not use the information listed here in-flight or in-navigation, as they are not provided to us by the airports but are provided by volunteers, so they might be outdated.

Search


Regions


Airport information page

No radio frequency information is available.

Airport informations:
Latitude: 28° 14' 38.36" S
Longitude: 052° 19' 35.61" W
Elevation: 2376 feet - 724 meters
Operating hours: From sunrise to sunset (SR-SS)
Operating agency: Civil government, landing fees and diplomatic clearance may be required
Timezone: UTC-3(-2DT)
Fuel: Jet A1, without icing nhibitor.

100/130 octane gasoline, leaded, MIL-L-5572F (GREEN)

Runway information:
08/26 - 5577 x 75 feet< - >1700 x 23 meters

Recent METARs:
SBPF 211300Z 06012KT CAVOK 22/13 Q1020
SBPF 211300Z 06012KT CAVOK 22/13 Q1020
SBPF 211700Z 11010KT CAVOK 27/11 Q1017

Airport on the map: